createdAt,value
2022-12-27T00:02:20.319Z,80.00
2022-12-27T00:04:46.866Z,80.32
2022-12-27T00:07:13.308Z,80.37
2022-12-27T00:09:39.792Z,80.85
2022-12-27T00:12:06.529Z,81.10
2022-12-27T00:14:32.872Z,81.07
2022-12-27T00:16:59.212Z,81.29
2022-12-27T00:19:25.581Z,81.12
2022-12-27T00:21:51.916Z,81.03
2022-12-27T00:24:18.415Z,81.07
2022-12-27T00:26:44.809Z,81.11
2022-12-27T00:29:11.144Z,81.38
2022-12-27T00:31:37.618Z,81.33
2022-12-27T00:34:07.757Z,81.14
2022-12-27T00:36:34.865Z,81.37
2022-12-27T00:39:01.936Z,81.58
2022-12-27T00:41:28.657Z,81.77
2022-12-27T00:43:55.245Z,81.70
2022-12-27T00:46:21.813Z,81.51
2022-12-27T00:48:48.300Z,81.94
2022-12-27T00:51:17.884Z,81.60
2022-12-27T00:53:45.149Z,81.52
2022-12-27T00:56:16.160Z,82.00
2022-12-27T00:58:42.728Z,81.93
2022-12-27T01:01:18.927Z,81.55
2022-12-27T01:03:46.100Z,81.58
2022-12-27T01:06:16.151Z,82.04
2022-12-27T01:08:43.232Z,82.15
2022-12-27T01:11:11.126Z,82.04
2022-12-27T01:13:38.651Z,82.33
2022-12-27T01:16:19.388Z,82.49
2022-12-27T01:18:46.793Z,82.93
2022-12-27T01:21:15.257Z,82.64
2022-12-27T01:23:42.101Z,83.00
2022-12-27T01:26:11.980Z,83.61
2022-12-27T01:28:38.512Z,83.61
2022-12-27T01:31:10.715Z,83.87
2022-12-27T01:33:37.485Z,83.66
2022-12-27T01:36:14.980Z,83.96
2022-12-27T01:38:44.102Z,83.97
2022-12-27T01:41:38.297Z,84.19
2022-12-27T01:44:39.071Z,84.12
2022-12-27T01:47:35.117Z,84.67
2022-12-27T01:50:16.102Z,84.95
2022-12-27T01:52:46.676Z,85.11
2022-12-27T01:55:17.269Z,85.02
2022-12-27T01:57:44.034Z,85.46
2022-12-27T02:00:11.590Z,85.31
2022-12-27T02:02:38.811Z,85.05
2022-12-27T02:05:06.476Z,85.62
2022-12-27T02:07:43.032Z,85.74
2022-12-27T02:10:09.481Z,85.25
2022-12-27T02:12:35.900Z,86.02
2022-12-27T02:15:04.439Z,85.77
2022-12-27T02:17:33.452Z,85.83
2022-12-27T02:20:17.218Z,86.05
2022-12-27T02:23:40.080Z,86.10
2022-12-27T02:26:28.009Z,86.13
2022-12-27T02:29:15.304Z,86.18
2022-12-27T02:31:49.261Z,86.34
2022-12-27T02:34:22.877Z,86.08
2022-12-27T02:36:53.051Z,85.87
2022-12-27T02:39:21.761Z,86.02
2022-12-27T02:42:07.644Z,86.44
2022-12-27T02:44:52.984Z,86.49
2022-12-27T02:47:40.317Z,86.23
2022-12-27T02:50:28.826Z,86.73
2022-12-27T02:53:17.362Z,86.69
2022-12-27T02:56:24.151Z,86.77
2022-12-27T02:58:59.443Z,86.84
2022-12-27T03:01:53.999Z,87.16
2022-12-27T03:04:32.715Z,86.91
2022-12-27T03:07:11.354Z,87.08
2022-12-27T03:10:15.551Z,86.75
2022-12-27T03:13:22.558Z,86.77
2022-12-27T03:16:00.832Z,86.97
2022-12-27T03:18:54.354Z,86.88
2022-12-27T03:22:03.685Z,87.16
2022-12-27T03:24:52.361Z,87.26
2022-12-27T03:27:28.516Z,87.30
2022-12-27T03:30:15.875Z,87.29
2022-12-27T03:33:07.326Z,87.17
2022-12-27T03:36:15.413Z,87.38
2022-12-27T03:38:58.793Z,86.95
2022-12-27T03:41:48.528Z,87.01
2022-12-27T03:44:24.752Z,87.34
2022-12-27T03:46:58.589Z,87.07
2022-12-27T03:49:38.911Z,87.36
2022-12-27T03:52:22.617Z,87.62
2022-12-27T03:54:51.905Z,87.21
2022-12-27T03:57:22.161Z,87.58
2022-12-27T03:59:48.623Z,87.90
2022-12-27T04:02:15.146Z,87.66
2022-12-27T04:04:41.706Z,87.63
2022-12-27T04:07:08.131Z,88.14
2022-12-27T04:09:53.563Z,87.75
2022-12-27T04:12:38.408Z,87.89
2022-12-27T04:15:23.810Z,87.88
2022-12-27T04:18:08.668Z,88.29
2022-12-27T04:20:53.493Z,87.87
2022-12-27T04:23:38.448Z,88.15
2022-12-27T04:26:23.736Z,87.87
2022-12-27T04:29:08.632Z,87.70
2022-12-27T04:31:53.926Z,88.02
2022-12-27T04:34:38.797Z,87.66
2022-12-27T04:37:05.924Z,87.87
2022-12-27T04:39:32.790Z,87.81
2022-12-27T04:42:17.886Z,87.80
2022-12-27T04:45:02.714Z,87.65
2022-12-27T04:47:48.344Z,87.61
2022-12-27T04:50:44.559Z,87.74
2022-12-27T04:53:35.455Z,87.95
2022-12-27T04:56:02.719Z,87.84
2022-12-27T04:58:29.458Z,87.87
2022-12-27T05:01:19.887Z,87.58
2022-12-27T05:03:49.486Z,87.64
2022-12-27T05:06:16.763Z,87.64
2022-12-27T05:09:02.418Z,87.76
2022-12-27T05:11:47.290Z,87.88
2022-12-27T05:14:15.059Z,87.94
2022-12-27T05:16:43.696Z,88.00
2022-12-27T05:19:12.216Z,88.15
2022-12-27T05:21:40.200Z,88.16
2022-12-27T05:24:25.474Z,87.88
2022-12-27T05:26:55.979Z,88.10
2022-12-27T05:29:22.442Z,87.98
2022-12-27T05:31:48.925Z,87.33
2022-12-27T05:34:15.450Z,87.44
2022-12-27T05:36:41.849Z,87.86
2022-12-27T05:39:08.232Z,87.88
2022-12-27T05:41:34.619Z,87.79
2022-12-27T05:44:06.886Z,88.03
2022-12-27T05:46:34.344Z,87.84
2022-12-27T05:49:00.729Z,87.75
2022-12-27T05:51:27.133Z,88.21
2022-12-27T05:53:53.566Z,87.87
2022-12-27T05:56:21.258Z,87.92
2022-12-27T05:58:47.802Z,88.37
2022-12-27T06:01:17.539Z,88.32
2022-12-27T06:03:44.711Z,87.88
2022-12-27T06:06:12.239Z,88.28
2022-12-27T06:08:39.784Z,88.52
2022-12-27T06:11:11.741Z,88.54
2022-12-27T06:13:39.619Z,88.57
2022-12-27T06:16:08.485Z,88.28
2022-12-27T06:18:36.689Z,88.34
2022-12-27T06:21:02.993Z,88.53
2022-12-27T06:23:29.397Z,88.24
2022-12-27T06:25:55.785Z,87.92
2022-12-27T06:28:22.123Z,87.96
2022-12-27T06:30:48.559Z,88.34
2022-12-27T06:33:14.939Z,88.23
2022-12-27T06:35:41.432Z,87.81
2022-12-27T06:38:07.826Z,87.80
2022-12-27T06:40:34.217Z,88.37
2022-12-27T06:43:00.597Z,88.26
2022-12-27T06:45:27.071Z,88.46
2022-12-27T06:47:53.486Z,87.92
2022-12-27T06:50:19.997Z,87.87
2022-12-27T06:52:46.401Z,88.45
2022-12-27T06:55:12.791Z,88.11
2022-12-27T06:57:39.213Z,88.54
2022-12-27T07:00:06.406Z,87.93
2022-12-27T07:02:32.920Z,88.29
2022-12-27T07:04:59.336Z,87.91
2022-12-27T07:07:25.793Z,88.30
2022-12-27T07:09:52.169Z,88.52
2022-12-27T07:12:18.532Z,88.13
2022-12-27T07:14:44.909Z,87.81
2022-12-27T07:17:11.269Z,88.05
2022-12-27T07:19:37.596Z,88.44
2022-12-27T07:22:03.978Z,88.14
2022-12-27T07:24:33.161Z,88.24
2022-12-27T07:27:00.207Z,88.23
2022-12-27T07:29:27.558Z,88.58
2022-12-27T07:31:54.173Z,88.35
2022-12-27T07:34:22.013Z,88.42
2022-12-27T07:36:48.395Z,88.25
2022-12-27T07:39:14.917Z,88.38
2022-12-27T07:41:41.334Z,88.40
2022-12-27T07:44:07.746Z,88.18
2022-12-27T07:46:34.313Z,88.28
2022-12-27T07:49:00.766Z,88.35
2022-12-27T07:51:29.216Z,88.07
2022-12-27T07:53:55.805Z,88.63
2022-12-27T07:56:26.566Z,88.27
2022-12-27T07:58:54.500Z,88.13
2022-12-27T08:01:22.256Z,88.33
2022-12-27T08:03:49.532Z,88.64
2022-12-27T08:06:30.413Z,88.90
2022-12-27T08:09:05.077Z,88.93
2022-12-27T08:11:31.448Z,88.66
2022-12-27T08:13:57.889Z,88.97
2022-12-27T08:16:26.402Z,88.88
2022-12-27T08:18:56.110Z,88.63
2022-12-27T08:21:23.648Z,88.43
2022-12-27T08:23:50.077Z,88.89
2022-12-27T08:26:16.407Z,88.79
2022-12-27T08:28:42.748Z,88.69
2022-12-27T08:31:11.452Z,88.99
2022-12-27T08:33:39.087Z,88.75
2022-12-27T08:36:22.318Z,89.35
2022-12-27T08:38:54.962Z,89.02
2022-12-27T08:41:22.274Z,89.19
2022-12-27T08:43:48.731Z,88.80
2022-12-27T08:46:15.238Z,88.89
2022-12-27T08:48:41.687Z,89.20
2022-12-27T08:51:12.595Z,89.02
2022-12-27T08:53:41.102Z,88.74
2022-12-27T08:56:07.726Z,88.84
2022-12-27T08:58:34.118Z,88.70
2022-12-27T09:01:08.155Z,89.37
2022-12-27T09:03:35.050Z,89.09
2022-12-27T09:06:27.883Z,89.13
2022-12-27T09:08:55.880Z,88.80
2022-12-27T09:11:25.620Z,88.89
2022-12-27T09:13:52.086Z,89.19
2022-12-27T09:16:24.536Z,89.21
2022-12-27T09:18:53.603Z,88.98
2022-12-27T09:21:21.801Z,89.34
2022-12-27T09:23:48.900Z,89.21
2022-12-27T09:26:21.289Z,89.36
2022-12-27T09:28:48.785Z,88.90
2022-12-27T09:31:16.605Z,89.28
2022-12-27T09:33:43.779Z,89.08
2022-12-27T09:36:22.031Z,89.61
2022-12-27T09:38:49.221Z,89.15
2022-12-27T09:44:41.546Z,89.35
2022-12-27T09:47:17.312Z,89.07
2022-12-27T09:49:48.559Z,89.37
2022-12-27T09:52:28.029Z,88.97
2022-12-27T09:55:02.637Z,89.09
2022-12-27T09:57:40.427Z,89.37
2022-12-27T10:00:16.063Z,89.38
2022-12-27T10:02:46.567Z,89.05
2022-12-27T10:05:25.984Z,89.58
2022-12-27T10:08:25.692Z,89.31
2022-12-27T10:10:52.109Z,89.43
2022-12-27T10:13:42.933Z,89.19
2022-12-27T10:16:27.597Z,89.44
2022-12-27T10:19:39.023Z,89.37
2022-12-27T10:22:26.643Z,89.59
2022-12-27T10:24:56.764Z,89.38
2022-12-27T10:27:25.418Z,89.54
2022-12-27T10:29:53.876Z,89.03
2022-12-27T10:32:20.320Z,89.43
2022-12-27T10:34:55.619Z,89.70
2022-12-27T10:37:22.351Z,89.78
2022-12-27T10:39:48.697Z,89.32
2022-12-27T10:42:29.919Z,89.57
2022-12-27T10:45:24.945Z,89.56
2022-12-27T10:47:52.879Z,89.30
2022-12-27T10:50:23.107Z,89.40
2022-12-27T10:52:55.703Z,89.34
2022-12-27T10:55:34.418Z,89.16
2022-12-27T10:58:20.259Z,89.56
2022-12-27T11:00:56.228Z,89.23
2022-12-27T11:03:23.181Z,89.15
2022-12-27T11:06:03.262Z,89.23
2022-12-27T11:08:30.421Z,89.29
2022-12-27T11:11:35.463Z,89.33
2022-12-27T11:14:16.364Z,89.71
2022-12-27T11:16:43.882Z,89.50
2022-12-27T11:19:24.048Z,89.78
2022-12-27T11:21:52.431Z,89.76
2022-12-27T11:24:21.357Z,89.84
2022-12-27T11:26:59.200Z,89.98
2022-12-27T11:29:29.992Z,89.75
2022-12-27T11:31:56.935Z,89.94
2022-12-27T11:34:52.543Z,89.53
2022-12-27T11:37:22.020Z,89.76
2022-12-27T11:39:51.158Z,89.86
2022-12-27T11:42:20.167Z,89.79
2022-12-27T11:45:07.201Z,89.53
2022-12-27T11:47:49.870Z,89.53
2022-12-27T11:50:28.347Z,89.83
2022-12-27T11:53:25.730Z,89.71
2022-12-27T11:55:58.254Z,89.17
2022-12-27T11:58:27.524Z,89.49
2022-12-27T12:01:18.407Z,89.17
2022-12-27T12:03:44.849Z,89.07
2022-12-27T12:06:20.382Z,89.16
2022-12-27T12:08:54.733Z,89.23
2022-12-27T12:11:47.441Z,89.08
2022-12-27T12:14:46.489Z,89.07
2022-12-27T12:17:22.663Z,89.04
2022-12-27T12:20:48.752Z,89.40
2022-12-27T12:23:40.192Z,89.16
2022-12-27T12:26:22.423Z,89.24
2022-12-27T12:29:04.165Z,89.21
2022-12-27T12:32:17.078Z,89.43
2022-12-27T12:34:49.551Z,89.36
2022-12-27T12:37:45.286Z,89.47
2022-12-27T12:40:23.863Z,89.36
2022-12-27T12:43:27.504Z,89.44
2022-12-27T12:46:32.072Z,89.15
2022-12-27T12:49:26.130Z,89.13
2022-12-27T12:52:32.957Z,89.02
2022-12-27T12:55:20.584Z,88.92
2022-12-27T12:58:06.071Z,88.90
2022-12-27T13:01:08.070Z,88.77
2022-12-27T13:04:01.804Z,88.99
2022-12-27T13:06:59.359Z,88.89
2022-12-27T13:09:37.857Z,89.13
2022-12-27T13:12:29.348Z,88.81
2022-12-27T13:15:23.852Z,89.02
2022-12-27T13:18:18.294Z,88.71
2022-12-27T13:21:00.748Z,88.69
2022-12-27T13:23:48.980Z,88.58
2022-12-27T13:26:33.779Z,88.69
2022-12-27T13:29:25.280Z,88.69
2022-12-27T13:32:09.149Z,88.69
2022-12-27T13:34:50.824Z,88.54
2022-12-27T13:37:36.051Z,88.59
2022-12-27T13:40:08.667Z,88.54
2022-12-27T13:42:51.172Z,88.75
2022-12-27T13:45:32.546Z,88.70
2022-12-27T13:48:13.561Z,88.64
2022-12-27T13:51:08.101Z,88.80
2022-12-27T13:54:11.150Z,88.71
2022-12-27T13:57:00.205Z,88.72
2022-12-27T13:59:41.534Z,88.80
2022-12-27T14:02:26.122Z,88.71
2022-12-27T14:05:01.363Z,88.54
2022-12-27T14:08:02.824Z,88.47
2022-12-27T14:10:36.846Z,88.48
2022-12-27T14:13:10.503Z,88.28
2022-12-27T14:15:58.826Z,88.33
2022-12-27T14:18:59.272Z,88.20
2022-12-27T14:21:25.616Z,88.30
2022-12-27T14:24:07.205Z,88.18
2022-12-27T14:26:55.433Z,88.02
2022-12-27T14:29:27.810Z,88.09
2022-12-27T14:32:18.102Z,87.95
2022-12-27T14:34:44.416Z,87.95
2022-12-27T14:37:28.540Z,87.81
2022-12-27T14:40:34.812Z,87.85
2022-12-27T14:43:17.052Z,87.81
2022-12-27T14:46:02.176Z,87.89
2022-12-27T14:49:06.091Z,87.79
2022-12-27T14:52:04.511Z,87.85
2022-12-27T14:54:55.024Z,87.98
2022-12-27T14:57:33.766Z,87.88
2022-12-27T15:00:23.410Z,87.74
2022-12-27T15:03:17.340Z,87.66
2022-12-27T15:06:06.500Z,87.72
2022-12-27T15:08:55.427Z,87.75
2022-12-27T15:11:48.958Z,87.50
2022-12-27T15:14:40.093Z,87.40
2022-12-27T15:17:12.612Z,87.35
2022-12-27T15:19:56.975Z,87.42
2022-12-27T15:22:49.736Z,86.97
2022-12-27T15:25:44.294Z,87.29
2022-12-27T15:28:45.645Z,87.19
2022-12-27T15:31:26.205Z,87.06
2022-12-27T15:33:58.604Z,87.14
2022-12-27T15:36:49.666Z,86.94
2022-12-27T15:39:34.033Z,87.04
2022-12-27T15:42:14.498Z,87.12
2022-12-27T15:45:11.721Z,87.03
2022-12-27T15:47:56.229Z,87.02
2022-12-27T15:50:39.901Z,87.08
2022-12-27T15:53:31.790Z,87.18
2022-12-27T15:56:19.593Z,87.03
2022-12-27T15:59:24.345Z,87.34
2022-12-27T16:02:18.357Z,87.21
2022-12-27T16:04:47.866Z,87.38
2022-12-27T16:07:37.402Z,87.39
2022-12-27T16:10:25.807Z,87.46
2022-12-27T16:12:54.531Z,87.31
2022-12-27T16:15:47.861Z,87.46
2022-12-27T16:18:20.335Z,87.42
2022-12-27T16:20:55.349Z,87.47
2022-12-27T16:23:29.429Z,87.45
2022-12-27T16:26:05.430Z,87.55
2022-12-27T16:28:35.342Z,87.73
2022-12-27T16:31:06.239Z,87.44
2022-12-27T16:33:37.409Z,87.49
2022-12-27T16:36:06.972Z,87.35
2022-12-27T16:38:34.769Z,87.56
2022-12-27T16:41:24.562Z,87.42
2022-12-27T16:44:00.099Z,87.18
2022-12-27T16:46:47.951Z,87.25
2022-12-27T16:49:32.623Z,87.09
2022-12-27T16:52:17.364Z,87.12
2022-12-27T16:55:02.539Z,86.95
2022-12-27T16:57:39.209Z,87.12
2022-12-27T17:00:08.300Z,87.14
2022-12-27T17:02:38.496Z,87.08
2022-12-27T17:05:17.025Z,87.15
2022-12-27T17:07:52.500Z,86.88
2022-12-27T17:10:24.923Z,87.14
2022-12-27T17:13:00.453Z,86.88
2022-12-27T17:15:27.487Z,86.75
2022-12-27T17:17:56.787Z,86.93
2022-12-27T17:20:23.915Z,86.83
2022-12-27T17:22:54.568Z,86.83
2022-12-27T17:25:29.907Z,86.49
2022-12-27T17:28:32.061Z,86.40
2022-12-27T17:31:22.707Z,86.63
2022-12-27T17:34:04.588Z,86.46
2022-12-27T17:36:55.503Z,86.33
2022-12-27T17:39:43.862Z,86.43
2022-12-27T17:42:33.580Z,86.32
2022-12-27T17:45:37.217Z,86.20
2022-12-27T17:48:15.331Z,86.20
2022-12-27T17:50:44.395Z,86.11
2022-12-27T17:53:29.520Z,85.90
2022-12-27T17:56:31.439Z,86.05
2022-12-27T17:59:08.445Z,85.96
2022-12-27T18:01:40.980Z,85.85
2022-12-27T18:04:07.891Z,85.87
2022-12-27T18:06:37.041Z,85.90
2022-12-27T18:09:04.392Z,85.87
2022-12-27T18:11:33.112Z,85.74
2022-12-27T18:14:00.631Z,85.71
2022-12-27T18:16:37.251Z,85.62
2022-12-27T18:19:03.915Z,85.54
2022-12-27T18:21:30.404Z,85.32
2022-12-27T18:23:57.178Z,85.38
2022-12-27T18:26:35.027Z,85.37
2022-12-27T18:29:01.583Z,85.27
2022-12-27T18:31:39.440Z,85.02
2022-12-27T18:34:16.513Z,84.98
2022-12-27T18:36:57.280Z,84.88
2022-12-27T18:39:33.681Z,84.79
2022-12-27T18:42:04.287Z,84.70
2022-12-27T18:44:42.458Z,84.74
2022-12-27T18:47:20.000Z,84.65
2022-12-27T18:49:52.517Z,84.54
2022-12-27T18:52:24.426Z,84.51
2022-12-27T18:54:51.951Z,84.60
2022-12-27T18:57:35.711Z,84.62
2022-12-27T19:00:21.987Z,84.52
2022-12-27T19:02:49.903Z,84.56
2022-12-27T19:05:19.429Z,84.37
2022-12-27T19:07:51.325Z,84.17
2022-12-27T19:10:19.786Z,84.06
2022-12-27T19:12:46.858Z,84.10
2022-12-27T19:15:24.772Z,84.14
2022-12-27T19:17:55.276Z,84.05
2022-12-27T19:20:34.803Z,83.81
2022-12-27T19:23:24.176Z,83.92
2022-12-27T19:26:16.521Z,83.91
2022-12-27T19:28:45.031Z,83.85
2022-12-27T19:31:18.493Z,83.97
2022-12-27T19:33:50.099Z,84.09
2022-12-27T19:36:17.108Z,83.92
2022-12-27T19:38:47.802Z,83.78
2022-12-27T19:41:14.886Z,83.69
2022-12-27T19:43:46.021Z,83.90
2022-12-27T19:46:14.108Z,83.52
2022-12-27T19:48:41.063Z,83.45
2022-12-27T19:51:13.127Z,83.38
2022-12-27T19:53:42.568Z,83.38
2022-12-27T19:56:10.527Z,83.09
2022-12-27T19:58:37.392Z,83.22
2022-12-27T20:01:04.217Z,83.36
2022-12-27T20:03:30.826Z,83.04
2022-12-27T20:06:14.312Z,82.80
2022-12-27T20:08:44.965Z,82.67
2022-12-27T20:11:17.537Z,82.58
2022-12-27T20:13:44.140Z,82.45
2022-12-27T20:16:13.020Z,82.26
2022-12-27T20:18:40.818Z,82.23
2022-12-27T20:21:07.762Z,82.22
2022-12-27T20:23:34.118Z,82.19
2022-12-27T20:26:00.518Z,82.05
2022-12-27T20:28:26.950Z,82.02
2022-12-27T20:30:53.553Z,81.80
2022-12-27T20:33:20.068Z,81.66
2022-12-27T20:35:54.917Z,81.81
2022-12-27T20:38:21.295Z,81.55
2022-12-27T20:40:47.813Z,81.45
2022-12-27T20:43:14.268Z,81.63
2022-12-27T20:45:40.705Z,81.33
2022-12-27T20:48:09.231Z,81.49
2022-12-27T20:50:40.692Z,81.24
2022-12-27T20:53:07.673Z,81.46
2022-12-27T20:55:34.352Z,81.13
2022-12-27T20:58:01.279Z,80.90
2022-12-27T21:00:27.709Z,80.96
2022-12-27T21:02:54.321Z,80.94
2022-12-27T21:05:20.854Z,80.91
2022-12-27T21:07:47.229Z,80.94
2022-12-27T21:10:13.546Z,80.90
2022-12-27T21:12:40.064Z,80.93
2022-12-27T21:15:08.467Z,80.92
2022-12-27T21:17:35.256Z,80.69
2022-12-27T21:20:01.674Z,80.42
2022-12-27T21:22:28.485Z,80.42
2022-12-27T21:24:54.922Z,80.51
2022-12-27T21:27:21.263Z,80.60
2022-12-27T21:29:47.677Z,80.53
2022-12-27T21:32:14.059Z,80.63
2022-12-27T21:34:41.164Z,80.50
2022-12-27T21:37:13.069Z,80.38
2022-12-27T21:39:39.968Z,80.40
2022-12-27T21:42:06.411Z,80.53
2022-12-27T21:44:35.205Z,80.72
2022-12-27T21:47:01.590Z,80.58
2022-12-27T21:49:27.936Z,80.49
2022-12-27T21:51:54.329Z,80.59
2022-12-27T21:54:20.695Z,80.56
2022-12-27T21:56:47.137Z,80.57
2022-12-27T21:59:13.550Z,80.67
2022-12-27T22:01:52.137Z,80.59
2022-12-27T22:04:20.215Z,80.66
2022-12-27T22:06:47.771Z,80.74
2022-12-27T22:09:15.011Z,80.54
2022-12-27T22:11:41.884Z,80.61
2022-12-27T22:14:08.313Z,80.79
2022-12-27T22:16:36.984Z,80.87
2022-12-27T22:19:13.431Z,81.05
2022-12-27T22:21:41.463Z,80.77
2022-12-27T22:24:11.739Z,80.93
2022-12-27T22:26:38.506Z,81.04
2022-12-27T22:29:05.776Z,81.11
2022-12-27T22:31:35.381Z,81.55
2022-12-27T22:34:03.578Z,81.98
2022-12-27T22:36:30.050Z,82.33
2022-12-27T22:38:57.977Z,82.78
2022-12-27T22:41:26.998Z,83.13
2022-12-27T22:43:59.653Z,83.12
2022-12-27T22:46:27.387Z,83.48
2022-12-27T22:48:56.598Z,83.53
2022-12-27T22:51:26.124Z,83.92
2022-12-27T22:53:53.800Z,84.23
2022-12-27T22:56:29.465Z,84.26
2022-12-27T22:58:55.973Z,84.73
2022-12-27T23:01:28.139Z,84.80
2022-12-27T23:03:59.008Z,85.14
2022-12-27T23:06:26.990Z,85.23
2022-12-27T23:08:54.149Z,85.29
2022-12-27T23:11:23.423Z,85.48
2022-12-27T23:14:09.896Z,85.69
2022-12-27T23:16:41.278Z,85.62
2022-12-27T23:19:11.949Z,85.71
2022-12-27T23:21:38.740Z,85.80
2022-12-27T23:24:06.224Z,85.94
2022-12-27T23:26:32.718Z,85.99
2022-12-27T23:28:59.244Z,86.00
2022-12-27T23:31:26.975Z,86.20
2022-12-27T23:33:53.883Z,86.18
2022-12-27T23:36:21.726Z,86.43
2022-12-27T23:38:48.720Z,86.61
2022-12-27T23:41:18.887Z,86.72
2022-12-27T23:43:54.296Z,86.85
2022-12-27T23:46:28.267Z,86.79
2022-12-27T23:48:56.461Z,86.85
2022-12-27T23:51:23.954Z,87.16
2022-12-27T23:53:51.039Z,87.16
2022-12-27T23:56:20.265Z,87.21
2022-12-27T23:58:48.139Z,87.41
